sensor_id;sensor_type;location;lat;lon;timestamp;pressure;altitude;pressure_sealevel;temperature;humidity
76464;BME280;65301;46.666;20.110;2024-01-25T00:00:13;101344.63;;;5.07;98.89
76464;BME280;65301;46.666;20.110;2024-01-25T00:03:15;101341.47;;;5.05;99.52
76464;BME280;65301;46.666;20.110;2024-01-25T00:06:16;101331.22;;;4.99;99.25
76464;BME280;65301;46.666;20.110;2024-01-25T00:09:18;101333.88;;;5.04;99.06
76464;BME280;65301;46.666;20.110;2024-01-25T00:12:20;101325.56;;;5.12;99.09
76464;BME280;65301;46.666;20.110;2024-01-25T00:15:22;101322.41;;;5.10;99.25
76464;BME280;65301;46.666;20.110;2024-01-25T00:18:24;101315.16;;;5.22;99.43
76464;BME280;65301;46.666;20.110;2024-01-25T00:21:25;101326.56;;;5.37;97.88
76464;BME280;65301;46.666;20.110;2024-01-25T00:24:27;101329.44;;;5.41;97.36
76464;BME280;65301;46.666;20.110;2024-01-25T00:27:29;101323.94;;;5.43;97.01
76464;BME280;65301;46.666;20.110;2024-01-25T00:30:31;101318.97;;;5.41;96.67
76464;BME280;65301;46.666;20.110;2024-01-25T00:33:33;101332.09;;;5.46;96.65
76464;BME280;65301;46.666;20.110;2024-01-25T00:36:35;101327.63;;;5.42;96.68
76464;BME280;65301;46.666;20.110;2024-01-25T00:39:37;101330.53;;;5.45;96.45
76464;BME280;65301;46.666;20.110;2024-01-25T00:42:42;101326.03;;;5.40;96.41
76464;BME280;65301;46.666;20.110;2024-01-25T00:45:45;101333.91;;;5.40;96.80
76464;BME280;65301;46.666;20.110;2024-01-25T00:48:47;101340.03;;;5.19;97.18
76464;BME280;65301;46.666;20.110;2024-01-25T00:51:50;101332.34;;;5.08;98.33
76464;BME280;65301;46.666;20.110;2024-01-25T00:54:57;101327.59;;;5.05;99.48
76464;BME280;65301;46.666;20.110;2024-01-25T00:57:59;101333.13;;;5.08;99.42
76464;BME280;65301;46.666;20.110;2024-01-25T01:01:01;101335.00;;;5.13;98.73
76464;BME280;65301;46.666;20.110;2024-01-25T01:04:04;101330.28;;;5.15;98.67
76464;BME280;65301;46.666;20.110;2024-01-25T01:07:07;101328.75;;;5.19;98.83
76464;BME280;65301;46.666;20.110;2024-01-25T01:10:09;101334.28;;;5.22;98.43
76464;BME280;65301;46.666;20.110;2024-01-25T01:13:11;101340.59;;;5.26;98.42
76464;BME280;65301;46.666;20.110;2024-01-25T01:16:13;101334.13;;;5.34;98.07
76464;BME280;65301;46.666;20.110;2024-01-25T01:19:15;101331.22;;;5.35;97.59
76464;BME280;65301;46.666;20.110;2024-01-25T01:22:17;101330.47;;;5.40;97.72
76464;BME280;65301;46.666;20.110;2024-01-25T01:25:19;101321.91;;;5.45;97.27
76464;BME280;65301;46.666;20.110;2024-01-25T01:28:21;101321.63;;;5.46;96.88
76464;BME280;65301;46.666;20.110;2024-01-25T01:31:23;101326.34;;;5.44;96.94
76464;BME280;65301;46.666;20.110;2024-01-25T01:34:25;101328.66;;;5.40;96.85
76464;BME280;65301;46.666;20.110;2024-01-25T01:37:27;101319.78;;;5.42;97.27
76464;BME280;65301;46.666;20.110;2024-01-25T01:40:28;101315.03;;;5.38;97.55
76464;BME280;65301;46.666;20.110;2024-01-25T01:43:30;101310.84;;;5.37;96.87
76464;BME280;65301;46.666;20.110;2024-01-25T01:46:37;101313.47;;;5.43;96.61
76464;BME280;65301;46.666;20.110;2024-01-25T01:49:42;101315.53;;;5.35;96.82
76464;BME280;65301;46.666;20.110;2024-01-25T01:52:45;101303.97;;;5.31;97.00
76464;BME280;65301;46.666;20.110;2024-01-25T01:55:49;101306.09;;;5.34;96.89
76464;BME280;65301;46.666;20.110;2024-01-25T01:58:51;101303.00;;;5.37;96.92
76464;BME280;65301;46.666;20.110;2024-01-25T02:01:54;101302.41;;;5.35;97.22
76464;BME280;65301;46.666;20.110;2024-01-25T02:04:56;101295.84;;;5.33;96.71
76464;BME280;65301;46.666;20.110;2024-01-25T02:07:57;101296.66;;;5.33;96.62
76464;BME280;65301;46.666;20.110;2024-01-25T02:10:59;101301.13;;;5.38;96.25
76464;BME280;65301;46.666;20.110;2024-01-25T02:14:02;101291.63;;;5.27;96.71
76464;BME280;65301;46.666;20.110;2024-01-25T02:17:04;101287.97;;;5.28;96.75
76464;BME280;65301;46.666;20.110;2024-01-25T02:20:06;101286.91;;;5.24;96.65
76464;BME280;65301;46.666;20.110;2024-01-25T02:23:08;101279.28;;;5.22;96.67
76464;BME280;65301;46.666;20.110;2024-01-25T02:26:11;101270.94;;;5.25;96.14
76464;BME280;65301;46.666;20.110;2024-01-25T02:29:13;101274.81;;;5.18;96.84
76464;BME280;65301;46.666;20.110;2024-01-25T02:32:14;101267.88;;;5.02;97.30
76464;BME280;65301;46.666;20.110;2024-01-25T02:35:16;101269.78;;;5.11;96.66
76464;BME280;65301;46.666;20.110;2024-01-25T02:38:18;101274.97;;;5.06;96.88
76464;BME280;65301;46.666;20.110;2024-01-25T02:41:20;101272.34;;;5.06;97.21
76464;BME280;65301;46.666;20.110;2024-01-25T02:44:22;101269.50;;;5.08;97.28
76464;BME280;65301;46.666;20.110;2024-01-25T02:47:24;101267.41;;;5.10;97.38
76464;BME280;65301;46.666;20.110;2024-01-25T02:50:25;101263.19;;;5.09;96.87
76464;BME280;65301;46.666;20.110;2024-01-25T02:53:27;101265.38;;;5.17;96.55
76464;BME280;65301;46.666;20.110;2024-01-25T02:56:29;101268.00;;;5.17;96.55
76464;BME280;65301;46.666;20.110;2024-01-25T02:59:36;101268.81;;;5.22;96.47
76464;BME280;65301;46.666;20.110;2024-01-25T03:02:38;101278.53;;;5.27;96.16
76464;BME280;65301;46.666;20.110;2024-01-25T03:05:40;101270.56;;;5.12;96.65
76464;BME280;65301;46.666;20.110;2024-01-25T03:08:42;101268.81;;;5.22;96.47
76464;BME280;65301;46.666;20.110;2024-01-25T03:11:44;101272.97;;;5.18;95.95
76464;BME280;65301;46.666;20.110;2024-01-25T03:14:45;101274.72;;;5.08;96.17
76464;BME280;65301;46.666;20.110;2024-01-25T03:17:47;101270.22;;;4.98;96.41
76464;BME280;65301;46.666;20.110;2024-01-25T03:20:49;101264.47;;;5.01;97.04
76464;BME280;65301;46.666;20.110;2024-01-25T03:23:52;101265.00;;;5.03;97.18
76464;BME280;65301;46.666;20.110;2024-01-25T03:26:54;101266.84;;;5.03;97.52
76464;BME280;65301;46.666;20.110;2024-01-25T03:29:56;101262.22;;;5.15;96.89
76464;BME280;65301;46.666;20.110;2024-01-25T03:32:58;101263.06;;;5.20;96.34
76464;BME280;65301;46.666;20.110;2024-01-25T03:36:03;101267.75;;;5.23;95.88
76464;BME280;65301;46.666;20.110;2024-01-25T03:39:06;101266.38;;;5.11;95.93
76464;BME280;65301;46.666;20.110;2024-01-25T03:42:08;101263.47;;;5.07;96.97
76464;BME280;65301;46.666;20.110;2024-01-25T03:45:10;101253.53;;;5.09;96.85
76464;BME280;65301;46.666;20.110;2024-01-25T03:48:12;101259.53;;;5.05;96.85
76464;BME280;65301;46.666;20.110;2024-01-25T03:51:14;101262.09;;;5.00;96.79
76464;BME280;65301;46.666;20.110;2024-01-25T03:54:16;101266.56;;;5.04;96.92
76464;BME280;65301;46.666;20.110;2024-01-25T03:57:18;101267.06;;;4.96;97.01
76464;BME280;65301;46.666;20.110;2024-01-25T04:00:20;101268.09;;;4.95;97.19
76464;BME280;65301;46.666;20.110;2024-01-25T04:03:22;101277.25;;;4.98;96.66
76464;BME280;65301;46.666;20.110;2024-01-25T04:06:23;101278.84;;;4.99;96.55
76464;BME280;65301;46.666;20.110;2024-01-25T04:09:25;101279.56;;;4.89;96.56
76464;BME280;65301;46.666;20.110;2024-01-25T04:12:27;101274.91;;;4.96;96.45
76464;BME280;65301;46.666;20.110;2024-01-25T04:15:29;101275.09;;;4.90;96.86
76464;BME280;65301;46.666;20.110;2024-01-25T04:18:31;101276.41;;;4.92;96.02
76464;BME280;65301;46.666;20.110;2024-01-25T04:21:33;101270.16;;;4.93;96.41
76464;BME280;65301;46.666;20.110;2024-01-25T04:24:38;101266.78;;;4.98;95.95
76464;BME280;65301;46.666;20.110;2024-01-25T04:27:40;101268.63;;;4.97;95.98
76464;BME280;65301;46.666;20.110;2024-01-25T04:30:42;101275.97;;;5.00;95.80
76464;BME280;65301;46.666;20.110;2024-01-25T04:33:45;101276.03;;;5.05;95.59
76464;BME280;65301;46.666;20.110;2024-01-25T04:36:50;101277.59;;;5.06;95.02
76464;BME280;65301;46.666;20.110;2024-01-25T04:39:51;101276.72;;;4.96;95.54
76464;BME280;65301;46.666;20.110;2024-01-25T04:42:53;101268.66;;;5.02;95.64
76464;BME280;65301;46.666;20.110;2024-01-25T04:45:55;101271.63;;;5.11;95.09
76464;BME280;65301;46.666;20.110;2024-01-25T04:48:57;101260.63;;;5.14;95.26
76464;BME280;65301;46.666;20.110;2024-01-25T04:51:59;101264.84;;;5.15;94.72
76464;BME280;65301;46.666;20.110;2024-01-25T04:55:02;101276.59;;;5.12;94.29
76464;BME280;65301;46.666;20.110;2024-01-25T04:58:04;101282.81;;;5.06;94.66
76464;BME280;65301;46.666;20.110;2024-01-25T05:01:06;101281.75;;;5.02;94.42
76464;BME280;65301;46.666;20.110;2024-01-25T05:04:09;101287.47;;;4.99;94.73
76464;BME280;65301;46.666;20.110;2024-01-25T05:07:11;101287.44;;;4.94;94.78
76464;BME280;65301;46.666;20.110;2024-01-25T05:10:13;101286.91;;;4.92;95.07
76464;BME280;65301;46.666;20.110;2024-01-25T05:13:15;101286.84;;;4.87;95.61
76464;BME280;65301;46.666;20.110;2024-01-25T05:16:17;101295.75;;;4.86;95.44
76464;BME280;65301;46.666;20.110;2024-01-25T05:19:19;101296.50;;;4.82;96.18
76464;BME280;65301;46.666;20.110;2024-01-25T05:22:21;101298.84;;;4.83;95.87
76464;BME280;65301;46.666;20.110;2024-01-25T05:25:24;101299.59;;;4.79;96.26
76464;BME280;65301;46.666;20.110;2024-01-25T05:28:27;101296.66;;;4.70;96.42
76464;BME280;65301;46.666;20.110;2024-01-25T05:31:29;101310.22;;;4.67;97.02
76464;BME280;65301;46.666;20.110;2024-01-25T05:34:32;101314.66;;;4.66;97.21
76464;BME280;65301;46.666;20.110;2024-01-25T05:37:34;101320.22;;;4.70;97.17
76464;BME280;65301;46.666;20.110;2024-01-25T05:40:36;101321.03;;;4.76;96.58
76464;BME280;65301;46.666;20.110;2024-01-25T05:43:37;101334.22;;;4.86;96.31
76464;BME280;65301;46.666;20.110;2024-01-25T05:46:39;101326.38;;;4.86;96.53
76464;BME280;65301;46.666;20.110;2024-01-25T05:49:41;101320.47;;;5.00;95.74
76464;BME280;65301;46.666;20.110;2024-01-25T05:52:47;101321.31;;;5.06;95.53
76464;BME280;65301;46.666;20.110;2024-01-25T05:56:11;101321.66;;;5.14;95.15
76464;BME280;65301;46.666;20.110;2024-01-25T05:59:13;101324.56;;;5.18;94.86
76464;BME280;65301;46.666;20.110;2024-01-25T06:02:15;101319.13;;;5.24;94.48
76464;BME280;65301;46.666;20.110;2024-01-25T06:05:17;101322.31;;;5.31;94.74
76464;BME280;65301;46.666;20.110;2024-01-25T06:08:21;101323.09;;;5.32;94.02
76464;BME280;65301;46.666;20.110;2024-01-25T06:11:25;101321.84;;;5.39;94.15
76464;BME280;65301;46.666;20.110;2024-01-25T06:14:27;101329.44;;;5.41;93.56
76464;BME280;65301;46.666;20.110;2024-01-25T06:17:28;101331.31;;;5.46;93.26
76464;BME280;65301;46.666;20.110;2024-01-25T06:20:30;101332.66;;;5.48;93.43
76464;BME280;65301;46.666;20.110;2024-01-25T06:23:33;101336.38;;;5.57;92.61
76464;BME280;65301;46.666;20.110;2024-01-25T06:26:34;101330.38;;;5.57;92.00
76464;BME280;65301;46.666;20.110;2024-01-25T06:29:36;101318.50;;;5.49;92.95
76464;BME280;65301;46.666;20.110;2024-01-25T06:32:38;101324.78;;;5.48;92.64
76464;BME280;65301;46.666;20.110;2024-01-25T06:35:40;101328.25;;;5.54;92.33
76464;BME280;65301;46.666;20.110;2024-01-25T06:38:42;101320.94;;;5.61;91.88
76464;BME280;65301;46.666;20.110;2024-01-25T06:41:44;101327.78;;;5.67;91.50
76464;BME280;65301;46.666;20.110;2024-01-25T06:44:46;101326.00;;;5.72;91.76
76464;BME280;65301;46.666;20.110;2024-01-25T06:47:48;101319.47;;;5.75;90.90
76464;BME280;65301;46.666;20.110;2024-01-25T06:50:50;101310.31;;;5.77;90.87
76464;BME280;65301;46.666;20.110;2024-01-25T06:53:52;101324.69;;;5.75;90.80
76464;BME280;65301;46.666;20.110;2024-01-25T06:56:57;101318.13;;;5.72;90.83
76464;BME280;65301;46.666;20.110;2024-01-25T06:59:59;101310.00;;;5.74;90.58
76464;BME280;65301;46.666;20.110;2024-01-25T07:03:02;101309.50;;;5.77;90.43
76464;BME280;65301;46.666;20.110;2024-01-25T07:06:05;101306.88;;;5.77;90.79
76464;BME280;65301;46.666;20.110;2024-01-25T07:09:12;101319.69;;;5.68;91.15
76464;BME280;65301;46.666;20.110;2024-01-25T07:12:15;101330.97;;;5.69;91.03
76464;BME280;65301;46.666;20.110;2024-01-25T07:15:17;101323.38;;;5.72;90.71
76464;BME280;65301;46.666;20.110;2024-01-25T07:18:19;101324.41;;;5.66;91.09
76464;BME280;65301;46.666;20.110;2024-01-25T07:21:24;101331.50;;;5.71;91.15
76464;BME280;65301;46.666;20.110;2024-01-25T07:24:45;101330.97;;;5.74;91.02
76464;BME280;65301;46.666;20.110;2024-01-25T07:27:47;101328.97;;;5.86;90.66
76464;BME280;65301;46.666;20.110;2024-01-25T07:30:51;101329.56;;;5.98;89.92
76464;BME280;65301;46.666;20.110;2024-01-25T07:33:53;101327.53;;;6.05;89.68
76464;BME280;65301;46.666;20.110;2024-01-25T07:36:55;101316.78;;;6.12;89.29
76464;BME280;65301;46.666;20.110;2024-01-25T07:39:58;101314.41;;;6.05;88.76
76464;BME280;65301;46.666;20.110;2024-01-25T07:43:00;101324.91;;;6.05;88.74
76464;BME280;65301;46.666;20.110;2024-01-25T07:46:01;101320.13;;;5.97;89.41
76464;BME280;65301;46.666;20.110;2024-01-25T07:49:03;101313.06;;;5.97;89.06
76464;BME280;65301;46.666;20.110;2024-01-25T07:52:06;101324.88;;;6.00;89.52
76464;BME280;65301;46.666;20.110;2024-01-25T07:55:08;101327.50;;;6.00;89.59
76464;BME280;65301;46.666;20.110;2024-01-25T07:58:10;101330.91;;;6.05;88.95
76464;BME280;65301;46.666;20.110;2024-01-25T08:01:12;101334.09;;;6.13;88.53
76464;BME280;65301;46.666;20.110;2024-01-25T08:04:16;101332.34;;;6.28;87.77
76464;BME280;65301;46.666;20.110;2024-01-25T08:07:18;101330.81;;;6.42;86.62
76464;BME280;65301;46.666;20.110;2024-01-25T08:10:21;101337.94;;;6.57;85.77
76464;BME280;65301;46.666;20.110;2024-01-25T08:13:23;101339.00;;;6.66;85.12
76464;BME280;65301;46.666;20.110;2024-01-25T08:16:25;101337.97;;;6.67;84.80
76464;BME280;65301;46.666;20.110;2024-01-25T08:19:27;101335.41;;;7.17;82.72
76464;BME280;65301;46.666;20.110;2024-01-25T08:22:29;101336.69;;;7.65;80.05
76464;BME280;65301;46.666;20.110;2024-01-25T08:25:31;101344.22;;;8.12;78.33
76464;BME280;65301;46.666;20.110;2024-01-25T08:28:33;101336.72;;;8.44;76.56
76464;BME280;65301;46.666;20.110;2024-01-25T08:31:35;101335.72;;;8.84;75.13
76464;BME280;65301;46.666;20.110;2024-01-25T08:34:37;101346.22;;;9.28;73.77
76464;BME280;65301;46.666;20.110;2024-01-25T08:37:39;101340.56;;;9.68;72.01
76464;BME280;65301;46.666;20.110;2024-01-25T08:40:41;101344.34;;;9.86;71.92
76464;BME280;65301;46.666;20.110;2024-01-25T08:43:44;101342.97;;;9.88;71.28
76464;BME280;65301;46.666;20.110;2024-01-25T08:46:51;101343.06;;;9.83;72.28
76464;BME280;65301;46.666;20.110;2024-01-25T08:50:00;101335.44;;;9.53;73.31
76464;BME280;65301;46.666;20.110;2024-01-25T08:53:04;101326.69;;;9.29;73.61
76464;BME280;65301;46.666;20.110;2024-01-25T08:56:06;101310.13;;;8.90;74.41
76464;BME280;65301;46.666;20.110;2024-01-25T08:59:08;101320.50;;;8.76;75.54
76464;BME280;65301;46.666;20.110;2024-01-25T09:02:10;101316.03;;;9.10;74.47
76464;BME280;65301;46.666;20.110;2024-01-25T09:05:12;101315.25;;;9.67;72.65
76464;BME280;65301;46.666;20.110;2024-01-25T09:08:15;101316.97;;;10.29;69.81
76464;BME280;65301;46.666;20.110;2024-01-25T09:11:18;101313.19;;;10.54;69.50
76464;BME280;65301;46.666;20.110;2024-01-25T09:14:23;101316.19;;;10.66;68.53
76464;BME280;65301;46.666;20.110;2024-01-25T09:17:25;101322.44;;;10.33;69.20
76464;BME280;65301;46.666;20.110;2024-01-25T09:20:26;101316.16;;;10.29;71.32
76464;BME280;65301;46.666;20.110;2024-01-25T09:23:28;101329.44;;;10.42;70.90
76464;BME280;65301;46.666;20.110;2024-01-25T09:26:31;101332.25;;;10.69;69.68
76464;BME280;65301;46.666;20.110;2024-01-25T09:29:33;101326.28;;;11.15;67.74
76464;BME280;65301;46.666;20.110;2024-01-25T09:32:36;101327.06;;;11.61;65.99
76464;BME280;65301;46.666;20.110;2024-01-25T09:35:37;101330.94;;;11.96;64.99
76464;BME280;65301;46.666;20.110;2024-01-25T09:38:40;101337.13;;;11.91;64.75
76464;BME280;65301;46.666;20.110;2024-01-25T09:41:41;101335.66;;;11.85;64.16
76464;BME280;65301;46.666;20.110;2024-01-25T09:44:46;101329.66;;;11.93;63.31
76464;BME280;65301;46.666;20.110;2024-01-25T09:47:48;101328.25;;;12.50;61.53
76464;BME280;65301;46.666;20.110;2024-01-25T09:50:51;101327.69;;;12.98;58.87
76464;BME280;65301;46.666;20.110;2024-01-25T09:53:57;101319.97;;;12.88;58.71
76464;BME280;65301;46.666;20.110;2024-01-25T09:57:00;101310.84;;;12.58;60.12
76464;BME280;65301;46.666;20.110;2024-01-25T10:00:05;101311.66;;;12.45;60.30
76464;BME280;65301;46.666;20.110;2024-01-25T10:03:13;101300.50;;;12.34;60.68
76464;BME280;65301;46.666;20.110;2024-01-25T10:06:16;101307.31;;;12.49;61.07
76464;BME280;65301;46.666;20.110;2024-01-25T10:09:18;101306.28;;;12.72;59.99
76464;BME280;65301;46.666;20.110;2024-01-25T10:12:20;101306.63;;;13.15;58.44
76464;BME280;65301;46.666;20.110;2024-01-25T10:15:24;101305.25;;;13.96;56.04
76464;BME280;65301;46.666;20.110;2024-01-25T10:18:26;101289.69;;;14.12;55.84
76464;BME280;65301;46.666;20.110;2024-01-25T10:21:31;101289.84;;;15.09;52.17
76464;BME280;65301;46.666;20.110;2024-01-25T10:24:33;101283.56;;;15.77;50.94
76464;BME280;65301;46.666;20.110;2024-01-25T10:27:37;101273.50;;;15.83;51.06
76464;BME280;65301;46.666;20.110;2024-01-25T10:30:39;101274.69;;;15.94;50.67
76464;BME280;65301;46.666;20.110;2024-01-25T10:33:42;101278.78;;;16.41;48.09
76464;BME280;65301;46.666;20.110;2024-01-25T10:36:45;101272.03;;;15.10;49.69
76464;BME280;65301;46.666;20.110;2024-01-25T10:39:48;101261.78;;;14.31;51.96
76464;BME280;65301;46.666;20.110;2024-01-25T10:42:51;101266.22;;;13.88;52.93
76464;BME280;65301;46.666;20.110;2024-01-25T10:45:54;101248.47;;;12.96;55.61
76464;BME280;65301;46.666;20.110;2024-01-25T10:49:01;101276.69;;;12.21;56.98
76464;BME280;65301;46.666;20.110;2024-01-25T10:52:05;101255.09;;;11.78;58.47
76464;BME280;65301;46.666;20.110;2024-01-25T10:55:07;101244.63;;;11.27;60.97
76464;BME280;65301;46.666;20.110;2024-01-25T10:58:13;101257.69;;;10.91;61.22
76464;BME280;65301;46.666;20.110;2024-01-25T11:01:16;101245.81;;;10.89;62.47
76464;BME280;65301;46.666;20.110;2024-01-25T11:04:19;101237.34;;;10.73;61.99
76464;BME280;65301;46.666;20.110;2024-01-25T11:07:21;101233.66;;;10.88;62.55
76464;BME280;65301;46.666;20.110;2024-01-25T11:10:27;101238.63;;;11.08;63.36
76464;BME280;65301;46.666;20.110;2024-01-25T11:13:31;101246.22;;;10.96;63.19
76464;BME280;65301;46.666;20.110;2024-01-25T11:16:35;101249.59;;;11.01;63.08
76464;BME280;65301;46.666;20.110;2024-01-25T11:19:38;101247.38;;;10.90;63.15
76464;BME280;65301;46.666;20.110;2024-01-25T11:22:44;101251.97;;;10.65;64.07
76464;BME280;65301;46.666;20.110;2024-01-25T11:25:49;101255.25;;;10.76;64.17
76464;BME280;65301;46.666;20.110;2024-01-25T11:28:51;101253.72;;;10.56;64.25
76464;BME280;65301;46.666;20.110;2024-01-25T11:31:53;101257.16;;;10.57;64.42
76464;BME280;65301;46.666;20.110;2024-01-25T11:34:59;101250.22;;;10.61;64.74
76464;BME280;65301;46.666;20.110;2024-01-25T11:38:01;101253.63;;;11.26;63.49
76464;BME280;65301;46.666;20.110;2024-01-25T11:41:09;101257.50;;;11.01;61.98
76464;BME280;65301;46.666;20.110;2024-01-25T11:44:42;101251.28;;;10.92;62.36
76464;BME280;65301;46.666;20.110;2024-01-25T11:47:45;101252.78;;;10.85;62.92
76464;BME280;65301;46.666;20.110;2024-01-25T11:50:48;101257.53;;;10.83;63.45
76464;BME280;65301;46.666;20.110;2024-01-25T11:53:52;101254.94;;;10.64;63.91
76464;BME280;65301;46.666;20.110;2024-01-25T11:56:54;101247.31;;;10.62;63.67
76464;BME280;65301;46.666;20.110;2024-01-25T11:59:56;101245.94;;;10.97;63.63
76464;BME280;65301;46.666;20.110;2024-01-25T12:02:58;101244.16;;;11.25;61.39
76464;BME280;65301;46.666;20.110;2024-01-25T12:06:00;101237.72;;;11.85;60.66
76464;BME280;65301;46.666;20.110;2024-01-25T12:09:06;101240.41;;;12.21;59.94
76464;BME280;65301;46.666;20.110;2024-01-25T12:12:10;101241.59;;;13.26;57.41
76464;BME280;65301;46.666;20.110;2024-01-25T12:15:12;101231.56;;;13.14;55.95
76464;BME280;65301;46.666;20.110;2024-01-25T12:18:14;101226.72;;;12.41;58.87
76464;BME280;65301;46.666;20.110;2024-01-25T12:21:16;101213.69;;;12.31;58.65
76464;BME280;65301;46.666;20.110;2024-01-25T12:24:19;101211.72;;;12.59;56.57
76464;BME280;65301;46.666;20.110;2024-01-25T12:27:21;101212.34;;;12.20;58.44
76464;BME280;65301;46.666;20.110;2024-01-25T12:30:24;101214.66;;;12.35;58.28
76464;BME280;65301;46.666;20.110;2024-01-25T12:33:26;101220.16;;;12.39;57.10
76464;BME280;65301;46.666;20.110;2024-01-25T12:36:29;101219.03;;;13.85;53.35
76464;BME280;65301;46.666;20.110;2024-01-25T12:39:31;101221.34;;;16.64;46.68
76464;BME280;65301;46.666;20.110;2024-01-25T12:42:33;101223.53;;;18.04;42.58
76464;BME280;65301;46.666;20.110;2024-01-25T12:45:35;101208.28;;;19.19;37.40
76464;BME280;65301;46.666;20.110;2024-01-25T12:48:38;101201.63;;;18.82;38.13
76464;BME280;65301;46.666;20.110;2024-01-25T12:51:40;101197.56;;;17.53;40.40
76464;BME280;65301;46.666;20.110;2024-01-25T12:54:42;101205.63;;;15.22;44.51
76464;BME280;65301;46.666;20.110;2024-01-25T12:57:44;101210.03;;;16.26;43.21
76464;BME280;65301;46.666;20.110;2024-01-25T13:00:46;101188.22;;;17.34;40.81
76464;BME280;65301;46.666;20.110;2024-01-25T13:03:48;101181.22;;;16.73;41.92
76464;BME280;65301;46.666;20.110;2024-01-25T13:06:54;101192.66;;;16.20;43.04
76464;BME280;65301;46.666;20.110;2024-01-25T13:09:57;101193.72;;;16.28;41.97
76464;BME280;65301;46.666;20.110;2024-01-25T13:12:59;101203.44;;;16.65;42.37
76464;BME280;65301;46.666;20.110;2024-01-25T13:16:01;101214.03;;;17.67;39.88
76464;BME280;65301;46.666;20.110;2024-01-25T13:19:03;101219.91;;;17.72;40.33
76464;BME280;65301;46.666;20.110;2024-01-25T13:22:05;101214.31;;;18.69;37.92
76464;BME280;65301;46.666;20.110;2024-01-25T13:25:07;101218.38;;;18.79;37.65
76464;BME280;65301;46.666;20.110;2024-01-25T13:28:11;101217.19;;;18.09;37.89
76464;BME280;65301;46.666;20.110;2024-01-25T13:31:14;101227.78;;;16.43;39.88
76464;BME280;65301;46.666;20.110;2024-01-25T13:34:16;101207.97;;;14.60;44.65
76464;BME280;65301;46.666;20.110;2024-01-25T13:37:18;101203.72;;;13.34;48.03
76464;BME280;65301;46.666;20.110;2024-01-25T13:40:20;101199.81;;;12.48;50.33
76464;BME280;65301;46.666;20.110;2024-01-25T13:43:23;101212.22;;;12.39;51.07
76464;BME280;65301;46.666;20.110;2024-01-25T13:46:24;101220.16;;;11.89;52.85
76464;BME280;65301;46.666;20.110;2024-01-25T13:49:27;101221.25;;;11.88;53.51
76464;BME280;65301;46.666;20.110;2024-01-25T13:52:29;101228.78;;;11.54;54.06
76464;BME280;65301;46.666;20.110;2024-01-25T13:55:31;101242.31;;;11.39;54.30
76464;BME280;65301;46.666;20.110;2024-01-25T13:58:33;101235.38;;;10.97;56.72
76464;BME280;65301;46.666;20.110;2024-01-25T14:01:35;101241.13;;;10.99;56.40
76464;BME280;65301;46.666;20.110;2024-01-25T14:04:38;101236.28;;;11.06;55.94
76464;BME280;65301;46.666;20.110;2024-01-25T14:07:42;101239.19;;;11.05;55.74
76464;BME280;65301;46.666;20.110;2024-01-25T14:10:44;101242.53;;;10.97;56.03
76464;BME280;65301;46.666;20.110;2024-01-25T14:13:46;101244.94;;;10.93;56.73
76464;BME280;65301;46.666;20.110;2024-01-25T14:16:48;101255.19;;;10.81;55.95
76464;BME280;65301;46.666;20.110;2024-01-25T14:19:50;101260.78;;;10.80;56.24
76464;BME280;65301;46.666;20.110;2024-01-25T14:22:52;101257.50;;;10.69;56.74
76464;BME280;65301;46.666;20.110;2024-01-25T14:25:54;101257.16;;;10.57;56.35
76464;BME280;65301;46.666;20.110;2024-01-25T14:28:56;101256.66;;;10.55;56.57
76464;BME280;65301;46.666;20.110;2024-01-25T14:31:58;101263.28;;;10.52;56.92
76464;BME280;65301;46.666;20.110;2024-01-25T14:35:00;101256.16;;;10.53;56.59
76464;BME280;65301;46.666;20.110;2024-01-25T14:38:02;101264.16;;;10.48;56.91
76464;BME280;65301;46.666;20.110;2024-01-25T14:41:08;101250.78;;;10.39;56.51
76464;BME280;65301;46.666;20.110;2024-01-25T14:44:10;101250.38;;;10.32;57.25
76464;BME280;65301;46.666;20.110;2024-01-25T14:47:12;101256.38;;;9.95;58.14
76464;BME280;65301;46.666;20.110;2024-01-25T14:50:15;101259.97;;;10.04;57.47
76464;BME280;65301;46.666;20.110;2024-01-25T14:53:20;101258.84;;;9.87;58.12
76464;BME280;65301;46.666;20.110;2024-01-25T14:56:22;101263.28;;;9.68;58.45
76464;BME280;65301;46.666;20.110;2024-01-25T14:59:24;101260.75;;;9.58;60.23
76464;BME280;65301;46.666;20.110;2024-01-25T15:02:27;101270.47;;;9.62;60.09
76464;BME280;65301;46.666;20.110;2024-01-25T15:05:28;101273.28;;;9.71;59.50
76464;BME280;65301;46.666;20.110;2024-01-25T15:08:30;101279.97;;;9.63;59.65
76464;BME280;65301;46.666;20.110;2024-01-25T15:11:32;101281.94;;;9.48;61.34
76464;BME280;65301;46.666;20.110;2024-01-25T15:14:34;101287.84;;;9.39;61.69
76464;BME280;65301;46.666;20.110;2024-01-25T15:17:36;101288.91;;;9.38;62.09
76464;BME280;65301;46.666;20.110;2024-01-25T15:20:37;101287.44;;;9.27;61.87
76464;BME280;65301;46.666;20.110;2024-01-25T15:23:39;101291.31;;;9.06;62.84
76464;BME280;65301;46.666;20.110;2024-01-25T15:26:41;101304.63;;;9.20;62.43
76464;BME280;65301;46.666;20.110;2024-01-25T15:29:43;101311.16;;;9.27;62.59
76464;BME280;65301;46.666;20.110;2024-01-25T15:32:45;101314.59;;;9.28;62.55
76464;BME280;65301;46.666;20.110;2024-01-25T15:35:50;101314.84;;;9.26;62.21
76464;BME280;65301;46.666;20.110;2024-01-25T15:38:52;101315.69;;;9.22;61.60
76464;BME280;65301;46.666;20.110;2024-01-25T15:41:54;101307.59;;;9.13;62.03
76464;BME280;65301;46.666;20.110;2024-01-25T15:44:56;101310.03;;;9.00;62.66
76464;BME280;65301;46.666;20.110;2024-01-25T15:47:57;101305.03;;;9.03;62.61